Time;durP1;ratioP1;P1;durP2;ratioP2;P2;SDS_P1;SDS_P2;PMS_P1;PMS_P2;Temp;Humidity;BMP_temperature;BMP_pressure;BME280_temperature;BME280_humidity;BME280_pressure;Samples;Min_cycle;Max_cycle;Signal;HPM_P1;HPM_P2
2023/08/31 00:01:39;;;;;;;3.03;1.60;;;16.20;99.90;;;;;;5010933;28;20636;-81
2023/08/31 00:04:14;;;;;;;6.40;1.47;;;16.20;99.90;;;;;;5020471;28;21025;-81
2023/08/31 00:06:44;;;;;;;5.00;1.30;;;16.20;99.90;;;;;;5002749;28;21011;-81
2023/08/31 00:09:11;;;;;;;4.80;1.70;;;16.20;99.90;;;;;;5021996;28;20712;-82
2023/08/31 00:11:37;;;;;;;2.93;1.20;;;16.20;99.90;;;;;;5019881;28;20589;-80
2023/08/31 00:14:03;;;;;;;3.03;1.40;;;16.20;99.90;;;;;;5000812;28;21036;-80
2023/08/31 00:16:29;;;;;;;4.70;1.43;;;16.20;99.90;;;;;;5020006;28;20581;-79
2023/08/31 00:18:56;;;;;;;3.53;1.97;;;16.20;99.90;;;;;;5002987;28;20618;-80
2023/08/31 00:21:22;;;;;;;5.13;1.30;;;16.20;99.90;;;;;;5018487;28;20647;-80
2023/08/31 00:23:48;;;;;;;2.47;1.27;;;16.20;99.90;;;;;;5009953;28;20602;-80
2023/08/31 00:26:17;;;;;;;2.90;1.50;;;16.10;99.90;;;;;;5000246;28;20203;-80
2023/08/31 00:28:46;;;;;;;3.93;1.50;;;16.10;99.90;;;;;;4985529;28;20621;-79
2023/08/31 00:31:12;;;;;;;3.60;1.40;;;16.10;99.90;;;;;;4999079;28;20581;-80
2023/08/31 00:33:39;;;;;;;3.10;1.67;;;16.00;99.90;;;;;;5005009;28;20636;-80
2023/08/31 00:36:04;;;;;;;4.50;1.60;;;16.00;99.90;;;;;;5003812;28;20593;-80
2023/08/31 00:38:31;;;;;;;2.73;1.27;;;16.00;99.90;;;;;;5038331;28;20690;-80
2023/08/31 00:40:57;;;;;;;2.60;1.13;;;15.90;99.90;;;;;;5021469;28;20170;-80
2023/08/31 00:43:22;;;;;;;3.80;1.60;;;15.90;99.90;;;;;;5036107;28;20595;-80
2023/08/31 00:45:57;;;;;;;7.90;1.50;;;15.80;99.90;;;;;;5019728;28;20210;-80
2023/08/31 00:48:23;;;;;;;3.13;1.40;;;15.80;99.90;;;;;;5009677;28;20204;-80
2023/08/31 00:50:50;;;;;;;5.13;1.50;;;15.80;99.90;;;;;;5005767;28;20585;-80
2023/08/31 00:53:17;;;;;;;2.20;1.30;;;15.70;99.90;;;;;;4987887;28;20585;-79
2023/08/31 00:55:45;;;;;;;3.63;1.23;;;15.70;99.90;;;;;;5009986;28;20623;-79
2023/08/31 00:58:11;;;;;;;4.90;1.60;;;15.70;99.90;;;;;;5001212;28;21474;-79
2023/08/31 01:01:05;;;;;;;6.20;1.70;;;15.60;99.90;;;;;;4994301;28;20589;-79
2023/08/31 01:03:33;;;;;;;3.07;1.70;;;15.60;99.90;;;;;;5025927;28;20633;-80
2023/08/31 01:06:47;;;;;;;4.07;1.60;;;15.60;99.90;;;;;;5009824;28;20641;-79
2023/08/31 01:09:36;;;;;;;3.13;2.33;;;15.60;99.90;;;;;;4991636;28;20581;-80
2023/08/31 01:12:29;;;;;;;3.43;1.73;;;15.60;99.90;;;;;;4993390;28;20632;-79
2023/08/31 01:14:55;;;;;;;4.70;1.93;;;15.60;99.90;;;;;;5019885;28;20565;-80
2023/08/31 01:17:23;;;;;;;3.23;1.97;;;15.60;99.90;;;;;;5014794;28;20701;-80
2023/08/31 01:19:52;;;;;;;3.13;1.30;;;15.60;99.90;;;;;;5001816;28;20194;-80
2023/08/31 01:22:42;;;;;;;3.10;1.40;;;15.50;99.90;;;;;;5016779;28;20784;-81
2023/08/31 01:25:09;;;;;;;6.90;1.83;;;15.50;99.90;;;;;;4992239;28;21034;-80
2023/08/31 01:27:35;;;;;;;3.93;1.40;;;15.50;99.90;;;;;;4974417;28;20676;-80
2023/08/31 01:30:05;;;;;;;3.17;1.37;;;15.50;99.90;;;;;;4984827;28;20573;-81
2023/08/31 01:32:31;;;;;;;3.67;1.63;;;15.50;99.90;;;;;;4996592;28;20590;-80
2023/08/31 01:34:57;;;;;;;5.70;1.87;;;15.50;99.90;;;;;;4994274;28;20591;-80
2023/08/31 01:37:50;;;;;;;4.80;1.70;;;15.40;99.90;;;;;;5010080;28;20614;-80
2023/08/31 01:40:59;;;;;;;3.60;1.70;;;15.40;99.90;;;;;;4994522;28;20589;-80
2023/08/31 01:43:26;;;;;;;4.40;1.90;;;15.40;99.90;;;;;;4992328;28;20615;-80
2023/08/31 01:45:52;;;;;;;4.60;1.67;;;15.30;99.90;;;;;;4994246;28;20767;-80
2023/08/31 01:48:18;;;;;;;5.00;1.87;;;15.30;99.90;;;;;;4997797;28;20620;-80
2023/08/31 01:50:43;;;;;;;2.93;2.20;;;15.20;99.90;;;;;;5017536;28;20676;-79
2023/08/31 01:53:09;;;;;;;3.33;1.33;;;15.20;99.90;;;;;;4994135;28;20166;-80
2023/08/31 01:55:35;;;;;;;3.20;1.60;;;15.10;99.90;;;;;;4986084;28;20242;-79
2023/08/31 01:58:01;;;;;;;5.23;1.83;;;15.10;99.90;;;;;;5003512;28;20236;-80
2023/08/31 02:00:28;;;;;;;3.90;1.80;;;15.00;99.90;;;;;;4990835;28;20589;-79
2023/08/31 02:02:55;;;;;;;3.10;1.57;;;15.00;99.90;;;;;;4988932;28;20946;-79
2023/08/31 02:05:21;;;;;;;3.17;1.93;;;14.90;99.90;;;;;;4990174;28;20641;-79
2023/08/31 02:07:46;;;;;;;4.30;2.53;;;14.90;99.90;;;;;;4983354;28;20232;-81
2023/08/31 02:10:12;;;;;;;4.87;2.30;;;14.80;99.90;;;;;;4978200;28;20174;-79
2023/08/31 02:12:38;;;;;;;3.10;1.97;;;14.80;99.90;;;;;;5020883;28;20281;-80
2023/08/31 02:15:05;;;;;;;3.27;2.20;;;14.80;99.90;;;;;;4999744;28;20171;-80
2023/08/31 02:17:31;;;;;;;3.30;2.00;;;14.70;99.90;;;;;;5018577;28;20636;-80
2023/08/31 02:19:57;;;;;;;4.30;1.90;;;14.70;99.90;;;;;;5000130;28;20626;-79
2023/08/31 02:22:23;;;;;;;2.80;2.10;;;14.70;99.90;;;;;;4993298;28;20585;-79
2023/08/31 02:24:49;;;;;;;4.47;2.10;;;14.60;99.90;;;;;;5027273;28;20644;-79
2023/08/31 02:27:15;;;;;;;4.03;1.63;;;14.60;99.90;;;;;;5028707;28;20213;-79
2023/08/31 02:29:40;;;;;;;3.93;1.77;;;14.60;99.90;;;;;;5006590;28;20651;-79
2023/08/31 02:32:06;;;;;;;2.83;1.83;;;14.50;99.90;;;;;;5036630;28;20187;-80
2023/08/31 02:34:33;;;;;;;4.53;2.20;;;14.50;99.90;;;;;;5006055;28;20189;-80
2023/08/31 02:36:58;;;;;;;2.93;1.30;;;14.50;99.90;;;;;;5004288;28;20632;-81
2023/08/31 02:39:27;;;;;;;2.60;1.80;;;14.50;99.90;;;;;;4992949;28;20193;-81
2023/08/31 02:41:52;;;;;;;6.40;2.00;;;14.50;99.90;;;;;;4990301;28;20944;-80
2023/08/31 02:44:19;;;;;;;3.40;1.50;;;14.50;99.90;;;;;;5028450;28;20169;-80
2023/08/31 02:46:46;;;;;;;3.47;1.97;;;14.40;99.90;;;;;;5023191;28;20617;-80
2023/08/31 02:49:11;;;;;;;2.90;1.50;;;14.40;99.90;;;;;;5029448;28;20988;-80
2023/08/31 02:51:37;;;;;;;2.03;1.20;;;14.40;99.90;;;;;;5006316;28;20219;-80
2023/08/31 02:54:03;;;;;;;3.40;1.37;;;14.40;99.90;;;;;;4980217;28;20201;-80
2023/08/31 02:56:29;;;;;;;6.23;1.70;;;14.40;99.90;;;;;;5022272;28;20182;-80
2023/08/31 02:58:55;;;;;;;4.47;2.13;;;14.40;99.90;;;;;;5000556;28;20605;-80
2023/08/31 03:01:23;;;;;;;3.77;2.10;;;14.40;99.90;;;;;;4986243;28;20575;-80
2023/08/31 03:03:50;;;;;;;3.20;1.60;;;14.30;99.90;;;;;;4988144;28;20593;-80
2023/08/31 03:06:16;;;;;;;3.20;1.90;;;14.30;99.90;;;;;;4988725;28;20728;-80
2023/08/31 03:08:42;;;;;;;4.30;1.80;;;14.30;99.90;;;;;;5024207;28;20625;-80
2023/08/31 03:11:08;;;;;;;3.40;1.80;;;14.30;99.90;;;;;;5016785;28;20580;-80
2023/08/31 03:13:35;;;;;;;2.90;1.97;;;14.20;99.90;;;;;;4994010;28;20173;-81
2023/08/31 03:16:02;;;;;;;3.40;1.80;;;14.20;99.90;;;;;;4991869;28;20605;-79
2023/08/31 03:18:28;;;;;;;3.10;1.70;;;14.20;99.90;;;;;;4991693;28;20204;-79
2023/08/31 03:20:55;;;;;;;3.83;1.50;;;14.20;99.90;;;;;;4986202;28;20644;-79
2023/08/31 03:23:21;;;;;;;4.63;1.60;;;14.20;99.90;;;;;;4978611;28;20641;-78
2023/08/31 03:25:46;;;;;;;7.77;1.50;;;14.20;99.90;;;;;;5012133;28;20719;-79
2023/08/31 03:28:12;;;;;;;3.10;1.57;;;14.20;99.90;;;;;;4994206;28;20625;-79
2023/08/31 03:30:38;;;;;;;3.00;1.30;;;14.10;99.90;;;;;;4968484;28;20689;-79
2023/08/31 03:33:04;;;;;;;6.07;1.97;;;14.10;99.90;;;;;;5006032;28;20673;-79
2023/08/31 03:35:32;;;;;;;7.13;2.13;;;14.10;99.90;;;;;;4993505;28;20328;-79
2023/08/31 03:38:00;;;;;;;2.30;1.40;;;14.10;99.90;;;;;;4975874;28;20621;-79
2023/08/31 03:40:27;;;;;;;2.07;1.53;;;14.20;99.90;;;;;;4988901;28;20585;-79
2023/08/31 03:42:54;;;;;;;3.67;1.40;;;14.30;99.90;;;;;;4993267;28;20588;-80
2023/08/31 03:45:20;;;;;;;3.00;1.33;;;14.30;99.90;;;;;;4978054;28;20190;-79
2023/08/31 03:47:46;;;;;;;5.30;2.70;;;14.40;99.90;;;;;;4992046;28;20624;-79
2023/08/31 03:50:12;;;;;;;2.37;1.60;;;14.50;99.90;;;;;;5017291;28;20582;-79
2023/08/31 03:52:38;;;;;;;2.20;1.27;;;14.50;99.90;;;;;;5004377;28;20601;-79
2023/08/31 03:55:04;;;;;;;4.33;2.23;;;14.60;99.90;;;;;;4996433;28;20198;-79
2023/08/31 03:57:32;;;;;;;2.03;1.67;;;14.70;99.90;;;;;;4992842;28;20210;-79
2023/08/31 04:00:09;;;;;;;3.60;1.70;;;14.80;99.90;;;;;;4999290;28;20608;-79
2023/08/31 04:02:42;;;;;;;2.77;1.30;;;14.90;99.90;;;;;;5011385;28;21115;-78
2023/08/31 04:05:09;;;;;;;3.40;1.67;;;15.00;99.90;;;;;;4995454;28;20633;-79
2023/08/31 04:07:35;;;;;;;2.50;1.40;;;15.10;99.90;;;;;;5000570;28;20999;-78
2023/08/31 04:10:01;;;;;;;3.40;1.90;;;15.20;99.90;;;;;;5019041;28;20672;-79
2023/08/31 04:12:29;;;;;;;2.53;1.70;;;15.30;99.90;;;;;;5002489;28;20585;-78
2023/08/31 04:14:54;;;;;;;3.53;1.37;;;15.30;99.90;;;;;;4984886;28;20597;-79
2023/08/31 04:17:20;;;;;;;4.83;1.60;;;15.40;99.90;;;;;;4988477;28;20716;-79
2023/08/31 04:19:46;;;;;;;2.40;1.67;;;15.40;99.90;;;;;;5015826;28;20186;-79
2023/08/31 04:22:12;;;;;;;3.00;1.40;;;15.40;99.90;;;;;;5022016;28;20186;-79
2023/08/31 04:24:38;;;;;;;3.20;2.03;;;15.40;99.90;;;;;;5019393;28;20629;-78
2023/08/31 04:27:04;;;;;;;3.70;1.47;;;15.40;99.90;;;;;;4998834;28;20213;-79
2023/08/31 04:29:29;;;;;;;3.37;1.40;;;15.40;99.90;;;;;;5004916;28;20214;-79
2023/08/31 04:31:55;;;;;;;2.20;1.20;;;15.40;99.90;;;;;;5003373;28;20589;-79
2023/08/31 04:34:21;;;;;;;6.37;1.90;;;15.40;99.90;;;;;;5007979;28;20186;-79
2023/08/31 04:36:46;;;;;;;3.33;1.50;;;15.40;99.90;;;;;;5009339;28;20279;-79
2023/08/31 04:39:12;;;;;;;2.77;1.30;;;15.40;99.90;;;;;;5019631;28;20194;-79
2023/08/31 04:41:38;;;;;;;4.13;1.30;;;15.30;99.90;;;;;;5004098;28;20178;-79
2023/08/31 04:44:04;;;;;;;4.60;1.80;;;15.30;99.90;;;;;;5019026;28;20185;-79
2023/08/31 04:46:29;;;;;;;2.80;1.57;;;15.30;99.90;;;;;;5009975;28;20720;-79
2023/08/31 04:48:55;;;;;;;2.00;1.40;;;15.30;99.90;;;;;;5023346;28;20189;-79
2023/08/31 04:51:29;;;;;;;4.23;2.33;;;15.20;99.90;;;;;;5013991;28;20167;-79
2023/08/31 04:53:55;;;;;;;3.70;1.77;;;15.20;99.90;;;;;;4993770;28;20590;-78
2023/08/31 04:56:21;;;;;;;3.93;1.60;;;15.10;99.90;;;;;;4999430;28;20593;-79
2023/08/31 04:58:47;;;;;;;2.40;1.30;;;15.10;99.90;;;;;;5009591;28;20667;-79
2023/08/31 05:01:12;;;;;;;5.17;1.70;;;15.00;99.90;;;;;;4979293;28;20550;-79
2023/08/31 05:03:38;;;;;;;4.93;1.80;;;15.00;99.90;;;;;;5008618;28;20247;-81
2023/08/31 05:06:07;;;;;;;3.97;1.57;;;14.90;99.90;;;;;;4995695;28;20218;-80
2023/08/31 05:08:34;;;;;;;2.93;2.10;;;14.90;99.90;;;;;;5000401;28;20197;-81
2023/08/31 05:10:59;;;;;;;3.90;1.53;;;14.80;99.90;;;;;;5014085;28;20600;-81
2023/08/31 05:13:25;;;;;;;4.13;1.53;;;14.80;99.90;;;;;;5018819;28;20585;-82
2023/08/31 05:15:51;;;;;;;3.73;1.97;;;14.70;99.90;;;;;;5013561;28;20665;-81
2023/08/31 05:18:16;;;;;;;3.20;1.83;;;14.70;99.90;;;;;;4994837;28;20204;-81
2023/08/31 05:20:46;;;;;;;4.27;1.40;;;14.70;99.90;;;;;;5003703;28;20660;-81
2023/08/31 05:23:12;;;;;;;2.43;1.60;;;14.60;99.90;;;;;;4996159;28;20178;-81
2023/08/31 05:25:44;;;;;;;2.10;1.40;;;14.60;99.90;;;;;;5024326;28;20636;-81
2023/08/31 05:28:10;;;;;;;3.10;1.30;;;14.60;99.90;;;;;;5012756;28;20258;-81
2023/08/31 05:30:36;;;;;;;6.07;2.10;;;14.60;99.90;;;;;;4979663;28;20589;-80
2023/08/31 05:33:03;;;;;;;2.70;1.70;;;14.60;99.90;;;;;;5014297;28;20655;-82
2023/08/31 05:35:30;;;;;;;3.80;1.83;;;14.60;99.90;;;;;;4981281;28;20689;-82
2023/08/31 05:37:55;;;;;;;2.90;1.73;;;14.60;99.90;;;;;;5011206;28;20620;-81
2023/08/31 05:40:21;;;;;;;3.33;2.00;;;14.60;99.90;;;;;;4994802;28;20586;-81
2023/08/31 05:42:47;;;;;;;5.60;2.00;;;14.60;99.90;;;;;;5025588;28;20353;-81
2023/08/31 05:45:13;;;;;;;2.87;1.97;;;14.60;99.90;;;;;;5024990;28;20628;-80
2023/08/31 05:47:40;;;;;;;3.13;1.73;;;14.60;99.90;;;;;;4984402;28;20233;-80
2023/08/31 05:50:07;;;;;;;4.23;1.77;;;14.70;99.90;;;;;;5017305;28;20175;-79
2023/08/31 05:52:43;;;;;;;2.93;1.63;;;14.70;99.90;;;;;;5007676;28;20621;-80
2023/08/31 05:55:09;;;;;;;3.40;1.80;;;14.70;99.90;;;;;;5033356;28;20592;-80
2023/08/31 05:57:35;;;;;;;4.67;1.67;;;14.80;99.90;;;;;;4993523;28;20629;-79
2023/08/31 06:00:01;;;;;;;2.90;1.67;;;14.80;99.90;;;;;;5015666;28;20985;-80
2023/08/31 06:02:28;;;;;;;3.60;1.97;;;14.90;99.90;;;;;;5004267;28;20601;-79
2023/08/31 06:04:53;;;;;;;3.23;2.00;;;14.90;99.90;;;;;;5012740;28;20211;-80
2023/08/31 06:07:19;;;;;;;2.50;1.60;;;15.00;99.90;;;;;;5018072;28;20661;-80
2023/08/31 06:09:45;;;;;;;3.97;1.90;;;15.00;99.90;;;;;;5004351;28;20178;-80
2023/08/31 06:12:10;;;;;;;2.40;1.43;;;15.10;99.90;;;;;;5007702;28;20213;-79
2023/08/31 06:14:36;;;;;;;3.40;1.30;;;15.10;99.90;;;;;;5009990;28;20184;-80
2023/08/31 06:17:02;;;;;;;9.00;3.33;;;15.20;99.90;;;;;;5012297;28;20245;-80
2023/08/31 06:19:28;;;;;;;4.53;1.70;;;15.30;99.90;;;;;;4996724;28;20179;-80
2023/08/31 06:21:54;;;;;;;5.57;1.97;;;15.30;99.90;;;;;;5004336;28;20578;-78
2023/08/31 06:24:19;;;;;;;4.67;1.83;;;15.40;99.90;;;;;;4983317;28;20305;-78
2023/08/31 06:26:45;;;;;;;5.87;1.93;;;15.50;99.90;;;;;;4978849;28;20565;-78
2023/08/31 06:29:11;;;;;;;4.07;1.80;;;15.60;99.90;;;;;;5015831;28;20300;-77
2023/08/31 06:31:36;;;;;;;4.47;1.73;;;15.60;99.90;;;;;;4994386;28;20175;-77
2023/08/31 06:34:04;;;;;;;2.87;1.67;;;15.80;99.90;;;;;;5010509;28;20178;-77
2023/08/31 06:36:30;;;;;;;4.50;1.93;;;16.20;99.90;;;;;;4974748;28;20206;-77
2023/08/31 06:38:55;;;;;;;2.50;1.33;;;16.90;99.90;;;;;;4975138;28;20590;-77
2023/08/31 06:41:21;;;;;;;3.90;1.47;;;17.70;99.90;;;;;;4986098;28;21121;-77
2023/08/31 06:43:47;;;;;;;4.53;1.30;;;18.70;99.90;;;;;;4978868;28;20264;-77
2023/08/31 06:46:12;;;;;;;3.53;1.43;;;19.80;99.90;;;;;;4974438;28;20771;-77
2023/08/31 06:48:38;;;;;;;2.30;1.00;;;20.90;99.90;;;;;;4974732;28;20603;-77
2023/08/31 06:51:04;;;;;;;3.70;1.03;;;22.10;99.90;;;;;;4992362;28;20442;-79
2023/08/31 06:53:31;;;;;;;2.10;0.90;;;23.20;99.90;;;;;;4997519;28;20258;-77
2023/08/31 06:55:58;;;;;;;2.90;1.00;;;24.20;99.90;;;;;;4977529;28;20662;-77
2023/08/31 06:58:23;;;;;;;2.27;0.80;;;25.20;99.90;;;;;;4994561;28;20661;-78
2023/08/31 07:00:49;;;;;;;1.90;0.80;;;26.10;99.90;;;;;;4996994;28;21141;-78
2023/08/31 07:03:15;;;;;;;3.10;0.97;;;26.90;99.90;;;;;;4978428;28;20181;-78
2023/08/31 07:05:42;;;;;;;3.50;0.90;;;27.60;99.90;;;;;;5004719;28;20259;-79
2023/08/31 07:08:08;;;;;;;2.23;0.70;;;28.30;99.90;;;;;;5000324;28;20266;-78
2023/08/31 07:10:36;;;;;;;2.60;0.80;;;29.10;99.90;;;;;;4984348;28;20607;-78
2023/08/31 07:13:03;;;;;;;3.10;0.90;;;29.70;99.90;;;;;;4988751;28;20502;-79
2023/08/31 07:15:29;;;;;;;5.50;0.97;;;30.20;99.90;;;;;;4981439;28;20621;-78
2023/08/31 07:17:55;;;;;;;2.30;0.90;;;30.10;99.90;;;;;;4996882;28;20756;-78
2023/08/31 07:20:21;;;;;;;4.20;1.00;;;29.80;99.90;;;;;;4984813;28;20185;-78
2023/08/31 07:22:46;;;;;;;2.90;0.90;;;29.80;99.90;;;;;;4990191;28;20175;-78
2023/08/31 07:25:12;;;;;;;4.60;0.90;;;30.00;99.90;;;;;;4997415;28;20688;-78
2023/08/31 07:27:38;;;;;;;2.23;0.80;;;30.40;99.90;;;;;;4993260;28;20634;-78
2023/08/31 07:30:05;;;;;;;2.27;0.70;;;30.90;99.90;;;;;;5011275;28;20185;-79
2023/08/31 07:32:31;;;;;;;2.50;0.80;;;31.40;99.90;;;;;;4994294;28;20180;-78
2023/08/31 07:34:57;;;;;;;2.87;1.20;;;31.90;99.90;;;;;;5021386;28;20638;-79
2023/08/31 07:37:23;;;;;;;2.07;0.80;;;32.30;99.90;;;;;;5006959;28;20625;-79
2023/08/31 07:39:49;;;;;;;2.33;0.93;;;32.70;99.90;;;;;;5018913;28;20654;-79
2023/08/31 07:42:14;;;;;;;2.90;0.80;;;33.10;99.90;;;;;;5022762;28;20192;-79
2023/08/31 07:44:41;;;;;;;1.83;0.60;;;33.40;99.90;;;;;;5012121;28;20348;-79
2023/08/31 07:47:08;;;;;;;1.97;0.93;;;33.80;99.90;;;;;;4996842;28;20218;-79
2023/08/31 07:49:34;;;;;;;1.80;0.80;;;34.10;99.90;;;;;;4998284;28;20595;-79
2023/08/31 07:52:00;;;;;;;2.23;0.80;;;34.40;99.00;;;;;;4985704;28;20184;-79
2023/08/31 07:54:25;;;;;;;3.83;0.80;;;34.50;98.00;;;;;;4972180;28;20179;-79
2023/08/31 07:56:51;;;;;;;2.33;0.93;;;34.30;95.70;;;;;;4991493;28;20199;-79
2023/08/31 07:59:18;;;;;;;1.97;0.80;;;33.80;93.40;;;;;;4998189;28;20180;-79
2023/08/31 08:01:44;;;;;;;2.17;0.80;;;33.10;91.60;;;;;;4994402;28;20590;-79
2023/08/31 08:04:11;;;;;;;3.20;1.03;;;32.30;90.40;;;;;;4979861;28;21011;-78
2023/08/31 08:06:37;;;;;;;3.50;1.10;;;31.50;88.80;;;;;;4986637;28;20990;-79
2023/08/31 08:09:04;;;;;;;2.57;0.90;;;30.60;89.70;;;;;;4987019;28;20683;-79
2023/08/31 08:11:30;;;;;;;3.70;1.53;;;29.90;90.00;;;;;;5001650;28;20181;-80
2023/08/31 08:13:56;;;;;;;1.93;0.80;;;29.30;90.80;;;;;;4989623;28;20650;-80
2023/08/31 08:16:22;;;;;;;2.53;0.90;;;28.60;90.90;;;;;;4985876;28;20612;-79
2023/08/31 08:18:49;;;;;;;1.77;0.87;;;28.20;91.60;;;;;;4982456;28;20203;-80
2023/08/31 08:21:15;;;;;;;5.37;0.80;;;28.00;92.60;;;;;;4967407;28;20605;-80
2023/08/31 08:23:40;;;;;;;1.70;0.70;;;28.20;94.50;;;;;;4983514;28;20596;-80
2023/08/31 08:26:06;;;;;;;3.00;0.83;;;28.40;94.80;;;;;;4973710;28;20226;-80
2023/08/31 08:28:32;;;;;;;4.43;0.97;;;28.50;94.40;;;;;;5000206;28;20192;-81
2023/08/31 08:31:03;;;;;;;4.87;1.00;;;28.60;94.70;;;;;;4982857;28;20175;-81
2023/08/31 08:33:30;;;;;;;1.97;1.13;;;28.90;95.00;;;;;;4986633;28;20586;-81
2023/08/31 08:35:57;;;;;;;2.43;0.80;;;29.40;95.90;;;;;;4975831;28;20588;-81
2023/08/31 08:38:22;;;;;;;2.47;0.90;;;30.10;96.00;;;;;;4977985;28;20617;-81
2023/08/31 08:40:50;;;;;;;3.40;1.10;;;30.80;96.00;;;;;;4982233;28;20597;-81
2023/08/31 08:43:25;;;;;;;2.43;0.70;;;31.50;94.90;;;;;;4981584;28;20254;-81
2023/08/31 08:45:55;;;;;;;2.17;0.70;;;32.20;93.50;;;;;;4984478;28;20975;-81
2023/08/31 08:48:21;;;;;;;2.10;0.80;;;32.90;93.30;;;;;;4992612;28;20699;-81
2023/08/31 08:50:48;;;;;;;2.50;0.70;;;33.40;92.50;;;;;;4991278;28;20595;-82
2023/08/31 08:53:15;;;;;;;1.80;0.70;;;34.00;91.70;;;;;;4987477;28;20626;-82
2023/08/31 08:55:43;;;;;;;3.40;0.70;;;34.40;90.00;;;;;;5009263;28;20578;-81
2023/08/31 08:58:09;;;;;;;2.10;0.70;;;34.80;85.00;;;;;;4998527;28;20668;-81
2023/08/31 09:00:35;;;;;;;1.60;0.70;;;35.10;84.50;;;;;;4987526;28;20626;-81
2023/08/31 09:03:03;;;;;;;1.93;0.90;;;35.40;82.00;;;;;;5002212;28;20614;-82
2023/08/31 09:05:32;;;;;;;2.60;0.83;;;35.70;80.70;;;;;;4988770;28;20637;-82
2023/08/31 09:08:13;;;;;;;1.80;0.73;;;36.00;78.40;;;;;;4987220;28;20614;-82
2023/08/31 09:10:43;;;;;;;1.70;0.70;;;36.20;76.00;;;;;;4995415;28;20644;-82
2023/08/31 09:13:11;;;;;;;1.60;0.80;;;36.10;72.70;;;;;;5002347;28;20597;-82
2023/08/31 09:15:45;;;;;;;2.57;0.80;;;35.90;72.30;;;;;;4994865;28;20589;-83
2023/08/31 09:18:32;;;;;;;2.83;0.70;;;35.80;70.00;;;;;;5002957;28;20601;-83
2023/08/31 09:21:00;;;;;;;4.17;0.80;;;35.90;68.70;;;;;;5002704;28;20641;-82
2023/08/31 09:23:27;;;;;;;4.73;0.83;;;36.00;69.20;;;;;;4987279;28;20664;-82
2023/08/31 09:25:56;;;;;;;1.50;0.60;;;36.20;68.80;;;;;;4980205;28;20675;-82
2023/08/31 09:28:27;;;;;;;2.80;0.80;;;36.40;66.40;;;;;;5005603;28;20631;-82
2023/08/31 09:31:01;;;;;;;2.73;0.70;;;36.70;65.00;;;;;;4981103;28;20622;-82
2023/08/31 09:33:28;;;;;;;3.70;1.00;;;36.80;65.50;;;;;;4987018;28;20586;-82
2023/08/31 09:35:59;;;;;;;2.30;0.90;;;36.90;64.80;;;;;;5007294;28;21045;-82
2023/08/31 09:38:25;;;;;;;4.27;0.67;;;37.10;62.50;;;;;;4991430;28;20242;-82
2023/08/31 09:40:51;;;;;;;1.90;0.60;;;37.10;61.90;;;;;;4989078;28;20578;-82
2023/08/31 09:43:22;;;;;;;1.60;0.60;;;36.90;60.80;;;;;;5003594;28;20266;-82
2023/08/31 09:45:49;;;;;;;4.47;0.80;;;36.90;60.10;;;;;;4996066;28;20215;-82
2023/08/31 09:48:16;;;;;;;1.70;0.60;;;37.10;61.60;;;;;;4999027;28;20729;-82
2023/08/31 09:50:45;;;;;;;2.43;0.80;;;37.30;61.00;;;;;;4994086;28;20598;-82
2023/08/31 09:53:12;;;;;;;2.27;1.10;;;37.50;59.60;;;;;;4989283;28;20642;-83
2023/08/31 09:55:39;;;;;;;3.03;0.90;;;37.20;57.90;;;;;;4971829;28;20648;-82
2023/08/31 09:58:07;;;;;;;4.80;1.00;;;37.00;57.00;;;;;;4979119;28;20684;-82
2023/08/31 10:00:36;;;;;;;2.97;0.70;;;37.00;57.40;;;;;;4997205;28;20615;-83
2023/08/31 10:03:04;;;;;;;3.63;0.70;;;36.90;56.60;;;;;;4981544;28;20629;-82
2023/08/31 10:05:31;;;;;;;2.70;0.70;;;36.80;56.40;;;;;;5003211;28;20595;-82
2023/08/31 10:07:58;;;;;;;2.30;0.80;;;36.60;55.80;;;;;;4992303;28;20633;-83
2023/08/31 10:10:24;;;;;;;3.20;0.70;;;36.20;55.10;;;;;;4991851;28;20690;-83
2023/08/31 10:12:51;;;;;;;3.00;1.17;;;35.70;54.90;;;;;;4998189;28;20613;-83
2023/08/31 10:15:18;;;;;;;2.77;0.73;;;35.40;55.00;;;;;;4987029;28;20667;-81
2023/08/31 10:17:44;;;;;;;2.70;0.70;;;35.20;55.20;;;;;;4982846;28;21010;-82
2023/08/31 10:20:16;;;;;;;3.10;0.80;;;35.00;55.40;;;;;;4996732;28;20616;-81
2023/08/31 10:22:43;;;;;;;1.70;0.70;;;35.00;54.30;;;;;;4978866;28;20590;-80
2023/08/31 10:25:09;;;;;;;2.07;0.80;;;34.70;54.00;;;;;;4994796;28;20587;-80
2023/08/31 10:27:40;;;;;;;4.20;1.13;;;34.20;53.50;;;;;;4976792;28;20620;-82
2023/08/31 10:30:26;;;;;;;3.00;1.40;;;33.60;52.80;;;;;;4983558;28;20628;-80
2023/08/31 10:33:10;;;;;;;2.80;1.47;;;33.10;52.70;;;;;;4951029;28;20584;-80
2023/08/31 10:35:48;;;;;;;2.73;1.00;;;32.40;52.90;;;;;;4987422;28;20638;-81
2023/08/31 10:38:32;;;;;;;3.40;1.77;;;31.80;52.90;;;;;;4997758;28;20968;-81
2023/08/31 10:41:00;;;;;;;3.10;1.40;;;31.20;52.70;;;;;;4991538;28;20759;-82
2023/08/31 10:43:26;;;;;;;2.40;0.90;;;30.90;54.60;;;;;;4977835;28;20592;-80
2023/08/31 10:45:52;;;;;;;4.67;1.23;;;30.70;55.40;;;;;;5012108;28;20593;-80
2023/08/31 10:48:18;;;;;;;3.37;0.93;;;30.60;55.30;;;;;;4986402;28;20227;-80
2023/08/31 10:50:49;;;;;;;2.27;1.23;;;30.50;55.90;;;;;;4996334;28;20184;-80
2023/08/31 10:53:14;;;;;;;3.10;1.50;;;30.40;55.30;;;;;;5007113;28;20976;-80
2023/08/31 10:55:53;;;;;;;4.13;1.20;;;30.30;55.60;;;;;;4997579;28;20645;-81
2023/08/31 10:58:19;;;;;;;3.10;1.10;;;30.00;54.60;;;;;;4983574;28;20204;-81
2023/08/31 11:00:56;;;;;;;3.00;1.37;;;29.70;55.50;;;;;;4997321;28;21247;-80
2023/08/31 11:03:22;;;;;;;2.30;1.00;;;29.40;55.60;;;;;;5000516;28;20609;-80
2023/08/31 11:05:52;;;;;;;2.13;1.07;;;29.20;56.40;;;;;;4980170;28;20601;-80
2023/08/31 11:08:25;;;;;;;2.17;1.10;;;29.00;56.80;;;;;;5002787;28;20572;-82
2023/08/31 11:10:52;;;;;;;5.03;0.77;;;29.00;57.60;;;;;;4973415;28;20587;-81
2023/08/31 11:13:24;;;;;;;2.23;1.00;;;29.10;58.20;;;;;;4989611;28;20684;-79
2023/08/31 11:15:51;;;;;;;3.90;1.07;;;29.10;57.90;;;;;;4976792;28;20663;-80
2023/08/31 11:18:20;;;;;;;3.10;0.97;;;29.20;58.80;;;;;;4974955;28;21273;-79
2023/08/31 11:20:47;;;;;;;2.97;1.40;;;29.40;59.10;;;;;;4976339;28;20594;-79
2023/08/31 11:23:13;;;;;;;4.20;1.53;;;29.60;58.80;;;;;;4982262;28;20617;-80
2023/08/31 11:25:39;;;;;;;3.50;1.87;;;29.70;58.60;;;;;;4983273;28;20592;-80
2023/08/31 11:28:09;;;;;;;3.70;2.30;;;29.70;57.90;;;;;;4975766;28;20636;-80
2023/08/31 11:30:36;;;;;;;3.80;1.47;;;29.50;57.40;;;;;;4994383;28;20186;-79
2023/08/31 11:33:06;;;;;;;4.03;1.30;;;29.50;57.60;;;;;;4992818;28;20597;-80
2023/08/31 11:35:37;;;;;;;2.13;0.90;;;29.30;57.20;;;;;;4999455;28;20660;-81
2023/08/31 11:38:04;;;;;;;2.80;1.37;;;29.20;57.50;;;;;;4967669;28;21224;-82
2023/08/31 11:40:29;;;;;;;3.40;1.10;;;29.10;57.60;;;;;;5004440;28;20645;-81
2023/08/31 11:42:56;;;;;;;5.37;3.10;;;28.80;57.20;;;;;;5006728;28;21216;-81
2023/08/31 11:45:25;;;;;;;3.50;1.70;;;28.50;57.20;;;;;;4989257;28;20216;-80
2023/08/31 11:47:52;;;;;;;4.50;1.40;;;28.10;57.30;;;;;;4987463;28;20615;-80
2023/08/31 11:50:19;;;;;;;2.70;1.00;;;27.80;57.70;;;;;;5008559;28;20632;-82
2023/08/31 11:52:45;;;;;;;2.90;1.00;;;27.30;58.00;;;;;;5008658;28;20587;-80
2023/08/31 11:55:17;;;;;;;3.37;0.83;;;26.90;58.30;;;;;;4975653;28;20653;-81
2023/08/31 11:57:52;;;;;;;1.83;0.80;;;26.60;58.40;;;;;;4984357;28;20219;-80
2023/08/31 12:00:20;;;;;;;2.83;0.90;;;26.20;58.70;;;;;;4989550;28;20641;-79
2023/08/31 12:02:48;;;;;;;2.67;0.87;;;25.90;59.20;;;;;;4997691;28;20618;-80
2023/08/31 12:05:14;;;;;;;2.63;0.70;;;25.70;59.40;;;;;;4980327;28;20936;-79
2023/08/31 12:07:41;;;;;;;2.00;0.80;;;25.60;59.90;;;;;;5004183;28;20625;-78
2023/08/31 12:10:08;;;;;;;3.70;1.00;;;25.50;60.60;;;;;;4999397;28;20608;-79
2023/08/31 12:12:34;;;;;;;2.53;0.70;;;25.40;61.10;;;;;;4996629;28;20605;-79
2023/08/31 12:15:03;;;;;;;2.07;0.80;;;25.40;61.80;;;;;;5003087;28;21053;-79
2023/08/31 12:17:30;;;;;;;2.20;0.77;;;25.50;61.90;;;;;;4999864;28;20742;-79
2023/08/31 12:20:04;;;;;;;2.40;0.80;;;25.50;62.00;;;;;;4976439;28;20947;-79
2023/08/31 12:22:30;;;;;;;4.07;1.00;;;25.60;62.80;;;;;;4984157;28;20693;-80
2023/08/31 12:24:56;;;;;;;2.07;1.00;;;25.70;63.40;;;;;;4973218;28;20642;-80
2023/08/31 12:27:22;;;;;;;2.87;0.80;;;25.70;63.50;;;;;;4998458;28;20301;-80
2023/08/31 12:29:48;;;;;;;2.20;0.80;;;25.70;63.40;;;;;;4976039;28;20183;-80
2023/08/31 12:32:14;;;;;;;3.40;0.80;;;25.70;63.50;;;;;;4974838;28;20179;-79
2023/08/31 12:34:42;;;;;;;3.60;0.80;;;25.60;63.80;;;;;;4996912;28;20675;-79
2023/08/31 12:37:08;;;;;;;2.67;1.20;;;25.50;64.40;;;;;;4975322;28;20223;-80
2023/08/31 12:39:34;;;;;;;2.63;1.60;;;25.30;64.00;;;;;;4985960;28;20629;-80
2023/08/31 12:42:00;;;;;;;2.97;1.40;;;25.10;64.00;;;;;;4999053;28;20175;-79
2023/08/31 12:44:26;;;;;;;3.93;1.37;;;24.80;64.20;;;;;;5001423;28;20593;-79
2023/08/31 12:46:52;;;;;;;3.97;1.50;;;24.60;65.40;;;;;;5005672;28;20644;-78
2023/08/31 12:49:20;;;;;;;4.20;2.17;;;24.40;65.00;;;;;;4984947;28;20185;-80
2023/08/31 12:51:46;;;;;;;2.63;1.50;;;24.20;65.30;;;;;;4994814;28;20622;-79